sensor_id;sensor_type;location;lat;lon;timestamp;temperature;humidity
21502;DHT22;27639;48.674;9.242;2023-04-21T00:00:23;10.10;61.30
21502;DHT22;27639;48.674;9.242;2023-04-21T00:02:49;10.10;61.30
21502;DHT22;27639;48.674;9.242;2023-04-21T00:05:14;10.00;61.20
21502;DHT22;27639;48.674;9.242;2023-04-21T00:07:40;10.00;61.20
21502;DHT22;27639;48.674;9.242;2023-04-21T00:10:07;9.90;63.10
21502;DHT22;27639;48.674;9.242;2023-04-21T00:12:33;9.90;62.30
21502;DHT22;27639;48.674;9.242;2023-04-21T00:14:58;9.90;62.30
21502;DHT22;27639;48.674;9.242;2023-04-21T00:17:24;9.90;62.30
21502;DHT22;27639;48.674;9.242;2023-04-21T00:19:50;9.90;62.40
21502;DHT22;27639;48.674;9.242;2023-04-21T00:22:16;9.80;62.20
21502;DHT22;27639;48.674;9.242;2023-04-21T00:24:43;9.80;62.30
21502;DHT22;27639;48.674;9.242;2023-04-21T00:27:09;9.80;62.50
21502;DHT22;27639;48.674;9.242;2023-04-21T00:29:36;9.80;62.50
21502;DHT22;27639;48.674;9.242;2023-04-21T00:32:02;9.80;62.60
21502;DHT22;27639;48.674;9.242;2023-04-21T00:34:28;9.70;62.50
21502;DHT22;27639;48.674;9.242;2023-04-21T00:36:54;9.70;62.60
21502;DHT22;27639;48.674;9.242;2023-04-21T00:39:19;9.70;62.70
21502;DHT22;27639;48.674;9.242;2023-04-21T00:41:45;9.70;62.80
21502;DHT22;27639;48.674;9.242;2023-04-21T00:44:10;9.60;62.70
21502;DHT22;27639;48.674;9.242;2023-04-21T00:46:36;9.60;62.80
21502;DHT22;27639;48.674;9.242;2023-04-21T00:49:05;9.60;62.80
21502;DHT22;27639;48.674;9.242;2023-04-21T00:51:32;9.60;62.90
21502;DHT22;27639;48.674;9.242;2023-04-21T00:53:59;9.50;62.90
21502;DHT22;27639;48.674;9.242;2023-04-21T00:56:27;9.50;63.00
21502;DHT22;27639;48.674;9.242;2023-04-21T00:58:53;9.40;62.90
21502;DHT22;27639;48.674;9.242;2023-04-21T01:01:19;9.40;63.10
21502;DHT22;27639;48.674;9.242;2023-04-21T01:03:44;9.40;63.10
21502;DHT22;27639;48.674;9.242;2023-04-21T01:06:13;9.40;63.10
21502;DHT22;27639;48.674;9.242;2023-04-21T01:08:38;9.40;63.00
21502;DHT22;27639;48.674;9.242;2023-04-21T01:11:11;9.40;63.00
21502;DHT22;27639;48.674;9.242;2023-04-21T01:13:37;9.30;62.90
21502;DHT22;27639;48.674;9.242;2023-04-21T01:16:04;9.40;63.00
21502;DHT22;27639;48.674;9.242;2023-04-21T01:18:30;9.40;63.10
21502;DHT22;27639;48.674;9.242;2023-04-21T01:20:55;9.30;62.90
21502;DHT22;27639;48.674;9.242;2023-04-21T01:23:23;9.20;62.80
21502;DHT22;27639;48.674;9.242;2023-04-21T01:25:49;9.20;62.90
21502;DHT22;27639;48.674;9.242;2023-04-21T01:28:24;9.20;62.90
21502;DHT22;27639;48.674;9.242;2023-04-21T01:30:50;9.00;62.80
21502;DHT22;27639;48.674;9.242;2023-04-21T01:33:16;9.00;63.00
21502;DHT22;27639;48.674;9.242;2023-04-21T01:35:43;8.90;62.80
21502;DHT22;27639;48.674;9.242;2023-04-21T01:38:09;8.90;63.00
21502;DHT22;27639;48.674;9.242;2023-04-21T01:40:35;8.90;63.20
21502;DHT22;27639;48.674;9.242;2023-04-21T01:43:01;8.80;63.10
21502;DHT22;27639;48.674;9.242;2023-04-21T01:45:28;8.80;63.10
21502;DHT22;27639;48.674;9.242;2023-04-21T01:47:54;8.80;63.20
21502;DHT22;27639;48.674;9.242;2023-04-21T01:50:20;8.70;63.20
21502;DHT22;27639;48.674;9.242;2023-04-21T01:52:46;8.70;63.30
21502;DHT22;27639;48.674;9.242;2023-04-21T01:55:11;8.70;63.50
21502;DHT22;27639;48.674;9.242;2023-04-21T01:57:37;8.70;63.50
21502;DHT22;27639;48.674;9.242;2023-04-21T02:00:03;8.70;63.30
21502;DHT22;27639;48.674;9.242;2023-04-21T02:02:29;8.70;63.40
21502;DHT22;27639;48.674;9.242;2023-04-21T02:04:54;8.70;63.30
21502;DHT22;27639;48.674;9.242;2023-04-21T02:07:20;8.70;63.40
21502;DHT22;27639;48.674;9.242;2023-04-21T02:09:46;8.60;63.30
21502;DHT22;27639;48.674;9.242;2023-04-21T02:12:12;8.50;63.40
21502;DHT22;27639;48.674;9.242;2023-04-21T02:14:37;8.50;63.60
21502;DHT22;27639;48.674;9.242;2023-04-21T02:17:03;8.50;63.70
21502;DHT22;27639;48.674;9.242;2023-04-21T02:19:29;8.40;63.80
21502;DHT22;27639;48.674;9.242;2023-04-21T02:21:55;8.40;63.90
21502;DHT22;27639;48.674;9.242;2023-04-21T02:24:20;8.30;63.90
21502;DHT22;27639;48.674;9.242;2023-04-21T02:26:46;8.30;64.10
21502;DHT22;27639;48.674;9.242;2023-04-21T02:29:12;8.20;64.00
21502;DHT22;27639;48.674;9.242;2023-04-21T02:31:38;8.20;64.20
21502;DHT22;27639;48.674;9.242;2023-04-21T02:34:04;8.20;64.40
21502;DHT22;27639;48.674;9.242;2023-04-21T02:36:29;8.10;64.50
21502;DHT22;27639;48.674;9.242;2023-04-21T02:38:55;8.20;64.60
21502;DHT22;27639;48.674;9.242;2023-04-21T02:41:21;8.20;64.80
21502;DHT22;27639;48.674;9.242;2023-04-21T02:43:48;8.20;64.80
21502;DHT22;27639;48.674;9.242;2023-04-21T02:46:13;8.30;64.90
21502;DHT22;27639;48.674;9.242;2023-04-21T02:48:39;8.20;64.70
21502;DHT22;27639;48.674;9.242;2023-04-21T02:51:09;8.30;64.50
21502;DHT22;27639;48.674;9.242;2023-04-21T02:53:35;8.20;64.30
21502;DHT22;27639;48.674;9.242;2023-04-21T02:56:01;8.20;64.30
21502;DHT22;27639;48.674;9.242;2023-04-21T02:58:29;8.20;64.30
21502;DHT22;27639;48.674;9.242;2023-04-21T03:00:55;8.10;64.20
21502;DHT22;27639;48.674;9.242;2023-04-21T03:03:20;8.10;64.20
21502;DHT22;27639;48.674;9.242;2023-04-21T03:05:46;8.00;64.10
21502;DHT22;27639;48.674;9.242;2023-04-21T03:08:12;8.00;64.10
21502;DHT22;27639;48.674;9.242;2023-04-21T03:10:37;8.00;63.80
21502;DHT22;27639;48.674;9.242;2023-04-21T03:13:03;8.00;63.80
21502;DHT22;27639;48.674;9.242;2023-04-21T03:15:29;8.10;63.80
21502;DHT22;27639;48.674;9.242;2023-04-21T03:17:55;8.10;63.90
21502;DHT22;27639;48.674;9.242;2023-04-21T03:20:20;8.10;64.00
21502;DHT22;27639;48.674;9.242;2023-04-21T03:22:46;8.00;63.90
21502;DHT22;27639;48.674;9.242;2023-04-21T03:25:11;8.00;64.10
21502;DHT22;27639;48.674;9.242;2023-04-21T03:27:37;7.90;64.00
21502;DHT22;27639;48.674;9.242;2023-04-21T03:30:04;7.90;64.20
21502;DHT22;27639;48.674;9.242;2023-04-21T03:32:31;7.80;64.30
21502;DHT22;27639;48.674;9.242;2023-04-21T03:34:56;7.80;64.40
21502;DHT22;27639;48.674;9.242;2023-04-21T03:37:22;7.80;64.60
21502;DHT22;27639;48.674;9.242;2023-04-21T03:39:47;7.80;64.60
21502;DHT22;27639;48.674;9.242;2023-04-21T03:42:13;7.90;64.80
21502;DHT22;27639;48.674;9.242;2023-04-21T03:44:38;8.00;64.70
21502;DHT22;27639;48.674;9.242;2023-04-21T03:47:04;8.00;64.50
21502;DHT22;27639;48.674;9.242;2023-04-21T03:49:29;8.00;64.40
21502;DHT22;27639;48.674;9.242;2023-04-21T03:51:55;8.10;64.50
21502;DHT22;27639;48.674;9.242;2023-04-21T03:54:21;8.00;64.40
21502;DHT22;27639;48.674;9.242;2023-04-21T03:56:47;8.10;64.50
21502;DHT22;27639;48.674;9.242;2023-04-21T03:59:12;8.10;64.50
21502;DHT22;27639;48.674;9.242;2023-04-21T04:01:38;8.10;64.70
21502;DHT22;27639;48.674;9.242;2023-04-21T04:04:03;8.10;64.80
21502;DHT22;27639;48.674;9.242;2023-04-21T04:06:29;8.10;64.80
21502;DHT22;27639;48.674;9.242;2023-04-21T04:08:56;8.10;64.80
21502;DHT22;27639;48.674;9.242;2023-04-21T04:11:21;8.10;64.80
21502;DHT22;27639;48.674;9.242;2023-04-21T04:13:48;8.10;64.60
21502;DHT22;27639;48.674;9.242;2023-04-21T04:16:13;8.20;64.70
21502;DHT22;27639;48.674;9.242;2023-04-21T04:18:39;8.10;64.60
21502;DHT22;27639;48.674;9.242;2023-04-21T04:21:05;8.20;64.70
21502;DHT22;27639;48.674;9.242;2023-04-21T04:23:32;8.20;64.70
21502;DHT22;27639;48.674;9.242;2023-04-21T04:25:58;8.20;64.30
21502;DHT22;27639;48.674;9.242;2023-04-21T04:28:23;8.20;64.10
21502;DHT22;27639;48.674;9.242;2023-04-21T04:30:49;8.20;64.10
21502;DHT22;27639;48.674;9.242;2023-04-21T04:33:15;8.20;64.00
21502;DHT22;27639;48.674;9.242;2023-04-21T04:35:40;8.20;63.80
21502;DHT22;27639;48.674;9.242;2023-04-21T04:38:06;8.20;63.90
21502;DHT22;27639;48.674;9.242;2023-04-21T04:40:32;8.20;63.90
21502;DHT22;27639;48.674;9.242;2023-04-21T04:42:58;8.20;63.90
21502;DHT22;27639;48.674;9.242;2023-04-21T04:45:25;8.20;64.00
21502;DHT22;27639;48.674;9.242;2023-04-21T04:47:54;8.20;64.00
21502;DHT22;27639;48.674;9.242;2023-04-21T04:50:19;8.20;63.80
21502;DHT22;27639;48.674;9.242;2023-04-21T04:52:45;8.10;63.70
21502;DHT22;27639;48.674;9.242;2023-04-21T04:55:12;8.10;64.00
21502;DHT22;27639;48.674;9.242;2023-04-21T04:57:38;8.10;64.00
21502;DHT22;27639;48.674;9.242;2023-04-21T05:00:06;8.10;63.70
21502;DHT22;27639;48.674;9.242;2023-04-21T05:02:35;8.00;63.90
21502;DHT22;27639;48.674;9.242;2023-04-21T05:05:01;8.00;64.20
21502;DHT22;27639;48.674;9.242;2023-04-21T05:07:27;8.00;64.70
21502;DHT22;27639;48.674;9.242;2023-04-21T05:09:52;8.00;65.00
21502;DHT22;27639;48.674;9.242;2023-04-21T05:12:18;8.00;65.00
21502;DHT22;27639;48.674;9.242;2023-04-21T05:14:44;8.00;65.00
21502;DHT22;27639;48.674;9.242;2023-04-21T05:17:10;8.10;64.60
21502;DHT22;27639;48.674;9.242;2023-04-21T05:19:35;8.10;64.00
21502;DHT22;27639;48.674;9.242;2023-04-21T05:22:04;8.10;63.30
21502;DHT22;27639;48.674;9.242;2023-04-21T05:24:33;7.90;63.70
21502;DHT22;27639;48.674;9.242;2023-04-21T05:26:58;7.80;63.90
21502;DHT22;27639;48.674;9.242;2023-04-21T05:29:24;7.80;64.00
21502;DHT22;27639;48.674;9.242;2023-04-21T05:31:50;7.80;63.70
21502;DHT22;27639;48.674;9.242;2023-04-21T05:34:15;7.80;64.00
21502;DHT22;27639;48.674;9.242;2023-04-21T05:36:41;7.70;64.20
21502;DHT22;27639;48.674;9.242;2023-04-21T05:39:07;7.60;64.50
21502;DHT22;27639;48.674;9.242;2023-04-21T05:41:33;7.70;64.70
21502;DHT22;27639;48.674;9.242;2023-04-21T05:43:58;7.70;66.10
21502;DHT22;27639;48.674;9.242;2023-04-21T05:46:24;7.70;65.40
21502;DHT22;27639;48.674;9.242;2023-04-21T05:48:50;7.80;65.60
21502;DHT22;27639;48.674;9.242;2023-04-21T05:51:15;7.80;65.80
21502;DHT22;27639;48.674;9.242;2023-04-21T05:53:42;7.90;66.00
21502;DHT22;27639;48.674;9.242;2023-04-21T05:56:08;7.90;66.70
21502;DHT22;27639;48.674;9.242;2023-04-21T05:58:35;8.00;66.10
21502;DHT22;27639;48.674;9.242;2023-04-21T06:01:01;8.10;66.40
21502;DHT22;27639;48.674;9.242;2023-04-21T06:03:26;8.10;66.10
21502;DHT22;27639;48.674;9.242;2023-04-21T06:05:54;8.20;66.10
21502;DHT22;27639;48.674;9.242;2023-04-21T06:08:21;8.30;66.00
21502;DHT22;27639;48.674;9.242;2023-04-21T06:10:47;8.30;66.20
21502;DHT22;27639;48.674;9.242;2023-04-21T06:13:12;8.30;66.40
21502;DHT22;27639;48.674;9.242;2023-04-21T06:15:38;8.40;66.50
21502;DHT22;27639;48.674;9.242;2023-04-21T06:18:03;8.40;66.40
21502;DHT22;27639;48.674;9.242;2023-04-21T06:20:29;8.30;66.50
21502;DHT22;27639;48.674;9.242;2023-04-21T06:22:55;8.40;66.70
21502;DHT22;27639;48.674;9.242;2023-04-21T06:25:20;8.40;66.90
21502;DHT22;27639;48.674;9.242;2023-04-21T06:27:46;8.50;67.10
21502;DHT22;27639;48.674;9.242;2023-04-21T06:30:12;8.50;67.80
21502;DHT22;27639;48.674;9.242;2023-04-21T06:32:38;8.70;68.60
21502;DHT22;27639;48.674;9.242;2023-04-21T06:35:04;8.90;67.60
21502;DHT22;27639;48.674;9.242;2023-04-21T06:37:29;9.00;67.30
21502;DHT22;27639;48.674;9.242;2023-04-21T06:39:55;9.10;66.70
21502;DHT22;27639;48.674;9.242;2023-04-21T06:42:21;9.20;66.20
21502;DHT22;27639;48.674;9.242;2023-04-21T06:44:46;9.30;65.70
21502;DHT22;27639;48.674;9.242;2023-04-21T06:47:12;9.30;65.50
21502;DHT22;27639;48.674;9.242;2023-04-21T06:49:37;9.30;65.40
21502;DHT22;27639;48.674;9.242;2023-04-21T06:52:03;9.40;65.30
21502;DHT22;27639;48.674;9.242;2023-04-21T06:54:29;9.40;64.80
21502;DHT22;27639;48.674;9.242;2023-04-21T06:56:54;9.40;64.70
21502;DHT22;27639;48.674;9.242;2023-04-21T06:59:21;9.40;64.80
21502;DHT22;27639;48.674;9.242;2023-04-21T07:01:47;9.40;65.00
21502;DHT22;27639;48.674;9.242;2023-04-21T07:04:19;9.30;65.10
21502;DHT22;27639;48.674;9.242;2023-04-21T07:06:45;9.30;65.30
21502;DHT22;27639;48.674;9.242;2023-04-21T07:09:11;9.30;65.10
21502;DHT22;27639;48.674;9.242;2023-04-21T07:11:37;9.40;65.90
21502;DHT22;27639;48.674;9.242;2023-04-21T07:14:02;9.50;66.50
21502;DHT22;27639;48.674;9.242;2023-04-21T07:16:28;9.70;66.70
21502;DHT22;27639;48.674;9.242;2023-04-21T07:18:54;9.80;67.40
21502;DHT22;27639;48.674;9.242;2023-04-21T07:21:20;10.00;65.80
21502;DHT22;27639;48.674;9.242;2023-04-21T07:23:45;10.10;65.50
21502;DHT22;27639;48.674;9.242;2023-04-21T07:26:11;10.30;64.70
21502;DHT22;27639;48.674;9.242;2023-04-21T07:28:37;10.30;64.60
21502;DHT22;27639;48.674;9.242;2023-04-21T07:31:03;10.40;64.80
21502;DHT22;27639;48.674;9.242;2023-04-21T07:33:28;10.50;64.10
21502;DHT22;27639;48.674;9.242;2023-04-21T07:35:54;10.70;64.40
21502;DHT22;27639;48.674;9.242;2023-04-21T07:38:20;10.80;64.10
21502;DHT22;27639;48.674;9.242;2023-04-21T07:40:45;10.80;63.80
21502;DHT22;27639;48.674;9.242;2023-04-21T07:43:11;10.90;63.00
21502;DHT22;27639;48.674;9.242;2023-04-21T07:45:37;11.00;63.10
21502;DHT22;27639;48.674;9.242;2023-04-21T07:48:02;11.30;64.40
21502;DHT22;27639;48.674;9.242;2023-04-21T07:50:30;11.40;63.80
21502;DHT22;27639;48.674;9.242;2023-04-21T07:52:56;11.60;63.80
21502;DHT22;27639;48.674;9.242;2023-04-21T07:55:21;11.70;63.40
21502;DHT22;27639;48.674;9.242;2023-04-21T07:57:47;11.80;63.10
21502;DHT22;27639;48.674;9.242;2023-04-21T08:00:13;12.00;64.30
21502;DHT22;27639;48.674;9.242;2023-04-21T08:02:39;12.20;63.30
21502;DHT22;27639;48.674;9.242;2023-04-21T08:05:05;12.50;63.50
21502;DHT22;27639;48.674;9.242;2023-04-21T08:07:31;12.80;62.20
21502;DHT22;27639;48.674;9.242;2023-04-21T08:09:57;13.10;61.30
21502;DHT22;27639;48.674;9.242;2023-04-21T08:12:23;13.30;61.00
21502;DHT22;27639;48.674;9.242;2023-04-21T08:14:48;13.60;59.80
21502;DHT22;27639;48.674;9.242;2023-04-21T08:17:14;13.80;59.20
21502;DHT22;27639;48.674;9.242;2023-04-21T08:19:40;13.90;58.90
21502;DHT22;27639;48.674;9.242;2023-04-21T08:22:05;14.10;58.40
21502;DHT22;27639;48.674;9.242;2023-04-21T08:24:31;14.20;57.50
21502;DHT22;27639;48.674;9.242;2023-04-21T08:26:57;14.40;57.40
21502;DHT22;27639;48.674;9.242;2023-04-21T08:29:22;14.60;59.00
21502;DHT22;27639;48.674;9.242;2023-04-21T08:31:48;14.60;57.40
21502;DHT22;27639;48.674;9.242;2023-04-21T08:34:13;14.60;57.20
21502;DHT22;27639;48.674;9.242;2023-04-21T08:36:39;14.70;57.00
21502;DHT22;27639;48.674;9.242;2023-04-21T08:39:07;14.80;56.70
21502;DHT22;27639;48.674;9.242;2023-04-21T08:41:32;14.80;56.60
21502;DHT22;27639;48.674;9.242;2023-04-21T08:43:58;14.80;56.80
21502;DHT22;27639;48.674;9.242;2023-04-21T08:46:24;14.90;57.20
21502;DHT22;27639;48.674;9.242;2023-04-21T08:48:50;15.10;57.50
21502;DHT22;27639;48.674;9.242;2023-04-21T08:51:23;15.40;57.70
21502;DHT22;27639;48.674;9.242;2023-04-21T08:53:53;15.60;56.80
21502;DHT22;27639;48.674;9.242;2023-04-21T08:56:19;15.70;56.80
21502;DHT22;27639;48.674;9.242;2023-04-21T08:58:45;15.90;57.00
21502;DHT22;27639;48.674;9.242;2023-04-21T09:01:10;16.10;57.50
21502;DHT22;27639;48.674;9.242;2023-04-21T09:03:36;16.30;56.50
21502;DHT22;27639;48.674;9.242;2023-04-21T09:06:04;16.50;55.10
21502;DHT22;27639;48.674;9.242;2023-04-21T09:08:30;16.60;54.20
21502;DHT22;27639;48.674;9.242;2023-04-21T09:10:58;16.70;54.20
21502;DHT22;27639;48.674;9.242;2023-04-21T09:13:35;16.70;53.70
21502;DHT22;27639;48.674;9.242;2023-04-21T09:16:03;16.80;53.30
21502;DHT22;27639;48.674;9.242;2023-04-21T09:18:30;16.80;53.50
21502;DHT22;27639;48.674;9.242;2023-04-21T09:21:12;16.80;53.30
21502;DHT22;27639;48.674;9.242;2023-04-21T09:23:46;16.70;53.90
21502;DHT22;27639;48.674;9.242;2023-04-21T09:26:12;16.80;53.90
21502;DHT22;27639;48.674;9.242;2023-04-21T09:28:44;16.90;54.00
21502;DHT22;27639;48.674;9.242;2023-04-21T09:31:16;16.90;53.30
21502;DHT22;27639;48.674;9.242;2023-04-21T09:33:46;16.90;54.10
21502;DHT22;27639;48.674;9.242;2023-04-21T09:36:19;17.00;55.10
21502;DHT22;27639;48.674;9.242;2023-04-21T09:38:56;17.30;54.10
21502;DHT22;27639;48.674;9.242;2023-04-21T09:41:22;17.50;53.70
21502;DHT22;27639;48.674;9.242;2023-04-21T09:43:49;17.70;53.70
21502;DHT22;27639;48.674;9.242;2023-04-21T09:46:16;17.90;53.00
21502;DHT22;27639;48.674;9.242;2023-04-21T09:48:44;18.20;52.50
21502;DHT22;27639;48.674;9.242;2023-04-21T09:51:11;18.50;52.10
21502;DHT22;27639;48.674;9.242;2023-04-21T09:53:39;18.60;52.60
21502;DHT22;27639;48.674;9.242;2023-04-21T09:56:13;18.80;51.80
21502;DHT22;27639;48.674;9.242;2023-04-21T09:58:45;19.00;52.40
21502;DHT22;27639;48.674;9.242;2023-04-21T10:01:13;19.10;51.60
21502;DHT22;27639;48.674;9.242;2023-04-21T10:03:40;19.30;50.40
21502;DHT22;27639;48.674;9.242;2023-04-21T10:06:06;19.40;50.10
21502;DHT22;27639;48.674;9.242;2023-04-21T10:08:32;19.40;48.90
21502;DHT22;27639;48.674;9.242;2023-04-21T10:10:59;19.20;49.60
21502;DHT22;27639;48.674;9.242;2023-04-21T10:13:25;19.10;49.90
21502;DHT22;27639;48.674;9.242;2023-04-21T10:16:10;19.20;49.30
21502;DHT22;27639;48.674;9.242;2023-04-21T10:18:42;19.30;49.90
21502;DHT22;27639;48.674;9.242;2023-04-21T10:21:10;19.20;51.00
21502;DHT22;27639;48.674;9.242;2023-04-21T10:23:43;19.30;51.40
21502;DHT22;27639;48.674;9.242;2023-04-21T10:28:51;19.80;50.10
21502;DHT22;27639;48.674;9.242;2023-04-21T10:39:34;20.30;48.60
21502;DHT22;27639;48.674;9.242;2023-04-21T10:44:50;20.40;48.00
21502;DHT22;27639;48.674;9.242;2023-04-21T10:47:44;20.60;48.10
21502;DHT22;27639;48.674;9.242;2023-04-21T10:50:12;20.70;48.00
21502;DHT22;27639;48.674;9.242;2023-04-21T10:52:38;20.70;46.80
21502;DHT22;27639;48.674;9.242;2023-04-21T10:55:08;20.40;46.70
21502;DHT22;27639;48.674;9.242;2023-04-21T10:57:36;20.50;48.00
21502;DHT22;27639;48.674;9.242;2023-04-21T11:00:03;20.60;47.70
21502;DHT22;27639;48.674;9.242;2023-04-21T11:02:33;20.70;47.50
21502;DHT22;27639;48.674;9.242;2023-04-21T11:05:00;20.80;46.90
21502;DHT22;27639;48.674;9.242;2023-04-21T11:07:26;20.80;46.60
21502;DHT22;27639;48.674;9.242;2023-04-21T11:09:59;20.80;46.80
21502;DHT22;27639;48.674;9.242;2023-04-21T11:12:26;20.90;47.40
21502;DHT22;27639;48.674;9.242;2023-04-21T11:14:52;20.90;47.90
21502;DHT22;27639;48.674;9.242;2023-04-21T11:17:19;20.90;47.40
21502;DHT22;27639;48.674;9.242;2023-04-21T11:19:51;20.80;47.60
21502;DHT22;27639;48.674;9.242;2023-04-21T11:22:18;20.80;47.40
21502;DHT22;27639;48.674;9.242;2023-04-21T11:24:45;20.90;47.60
21502;DHT22;27639;48.674;9.242;2023-04-21T11:27:11;21.10;48.00
21502;DHT22;27639;48.674;9.242;2023-04-21T11:29:38;21.00;47.30
21502;DHT22;27639;48.674;9.242;2023-04-21T11:32:08;21.10;47.90
21502;DHT22;27639;48.674;9.242;2023-04-21T11:34:36;21.20;47.60
21502;DHT22;27639;48.674;9.242;2023-04-21T11:37:03;21.30;47.40
21502;DHT22;27639;48.674;9.242;2023-04-21T11:39:28;21.40;47.00
21502;DHT22;27639;48.674;9.242;2023-04-21T11:41:54;21.50;46.50
21502;DHT22;27639;48.674;9.242;2023-04-21T11:44:41;21.60;46.80
21502;DHT22;27639;48.674;9.242;2023-04-21T11:47:22;21.70;46.30
21502;DHT22;27639;48.674;9.242;2023-04-21T11:49:56;21.70;46.60
21502;DHT22;27639;48.674;9.242;2023-04-21T11:52:28;21.80;46.90
21502;DHT22;27639;48.674;9.242;2023-04-21T11:54:56;21.90;46.50
21502;DHT22;27639;48.674;9.242;2023-04-21T11:57:23;22.10;46.00
21502;DHT22;27639;48.674;9.242;2023-04-21T11:59:50;22.10;46.10
21502;DHT22;27639;48.674;9.242;2023-04-21T12:02:27;22.20;45.90
21502;DHT22;27639;48.674;9.242;2023-04-21T12:04:57;22.10;45.10
21502;DHT22;27639;48.674;9.242;2023-04-21T12:07:24;22.20;45.70
21502;DHT22;27639;48.674;9.242;2023-04-21T12:09:53;22.30;45.20
21502;DHT22;27639;48.674;9.242;2023-04-21T12:12:18;22.40;45.60
21502;DHT22;27639;48.674;9.242;2023-04-21T12:14:44;22.50;45.70
21502;DHT22;27639;48.674;9.242;2023-04-21T12:17:10;22.60;44.70
21502;DHT22;27639;48.674;9.242;2023-04-21T12:19:40;22.50;44.40
21502;DHT22;27639;48.674;9.242;2023-04-21T12:22:15;22.50;44.90
21502;DHT22;27639;48.674;9.242;2023-04-21T12:24:43;22.50;44.30
21502;DHT22;27639;48.674;9.242;2023-04-21T12:27:09;22.40;45.00
21502;DHT22;27639;48.674;9.242;2023-04-21T12:29:35;22.40;45.00
21502;DHT22;27639;48.674;9.242;2023-04-21T12:32:02;22.50;43.90
21502;DHT22;27639;48.674;9.242;2023-04-21T12:34:28;22.50;44.30
21502;DHT22;27639;48.674;9.242;2023-04-21T12:36:53;22.40;44.40
21502;DHT22;27639;48.674;9.242;2023-04-21T12:39:19;22.50;43.90
21502;DHT22;27639;48.674;9.242;2023-04-21T12:41:46;22.50;43.70
21502;DHT22;27639;48.674;9.242;2023-04-21T12:44:12;22.50;43.80
21502;DHT22;27639;48.674;9.242;2023-04-21T12:46:38;22.30;44.00
21502;DHT22;27639;48.674;9.242;2023-04-21T12:49:04;22.30;43.70
21502;DHT22;27639;48.674;9.242;2023-04-21T12:51:32;22.40;42.70
21502;DHT22;27639;48.674;9.242;2023-04-21T12:53:57;22.40;43.20
21502;DHT22;27639;48.674;9.242;2023-04-21T12:56:23;22.50;43.60
21502;DHT22;27639;48.674;9.242;2023-04-21T12:58:49;22.50;43.80
21502;DHT22;27639;48.674;9.242;2023-04-21T13:01:14;22.50;43.50
21502;DHT22;27639;48.674;9.242;2023-04-21T13:03:41;22.50;43.50
21502;DHT22;27639;48.674;9.242;2023-04-21T13:06:07;22.70;43.10
21502;DHT22;27639;48.674;9.242;2023-04-21T13:08:33;22.70;43.00
21502;DHT22;27639;48.674;9.242;2023-04-21T13:11:00;22.70;43.30
21502;DHT22;27639;48.674;9.242;2023-04-21T13:13:25;22.80;42.60
21502;DHT22;27639;48.674;9.242;2023-04-21T13:15:51;22.80;42.60
21502;DHT22;27639;48.674;9.242;2023-04-21T13:18:17;22.90;42.70
21502;DHT22;27639;48.674;9.242;2023-04-21T13:20:42;23.00;42.70
21502;DHT22;27639;48.674;9.242;2023-04-21T13:23:08;23.10;42.40
21502;DHT22;27639;48.674;9.242;2023-04-21T13:25:35;23.20;42.10
21502;DHT22;27639;48.674;9.242;2023-04-21T13:28:01;23.30;42.40
21502;DHT22;27639;48.674;9.242;2023-04-21T13:30:26;23.40;42.20
21502;DHT22;27639;48.674;9.242;2023-04-21T13:32:52;23.50;41.70
21502;DHT22;27639;48.674;9.242;2023-04-21T13:35:17;23.40;41.90
21502;DHT22;27639;48.674;9.242;2023-04-21T13:37:43;23.20;41.40
21502;DHT22;27639;48.674;9.242;2023-04-21T13:40:09;23.30;41.60
21502;DHT22;27639;48.674;9.242;2023-04-21T13:42:35;23.20;41.80
21502;DHT22;27639;48.674;9.242;2023-04-21T13:45:01;23.20;41.60
21502;DHT22;27639;48.674;9.242;2023-04-21T13:47:29;23.30;41.10
21502;DHT22;27639;48.674;9.242;2023-04-21T13:49:55;23.30;41.10
21502;DHT22;27639;48.674;9.242;2023-04-21T13:52:21;23.30;41.30
21502;DHT22;27639;48.674;9.242;2023-04-21T13:54:46;23.50;41.20
21502;DHT22;27639;48.674;9.242;2023-04-21T13:57:12;23.50;41.50
21502;DHT22;27639;48.674;9.242;2023-04-21T13:59:37;23.60;41.30
21502;DHT22;27639;48.674;9.242;2023-04-21T14:02:03;23.70;41.20
21502;DHT22;27639;48.674;9.242;2023-04-21T14:04:29;23.80;40.60
21502;DHT22;27639;48.674;9.242;2023-04-21T14:06:54;23.80;40.10
21502;DHT22;27639;48.674;9.242;2023-04-21T14:09:20;23.80;40.20
21502;DHT22;27639;48.674;9.242;2023-04-21T14:11:46;23.70;40.40
21502;DHT22;27639;48.674;9.242;2023-04-21T14:14:11;23.70;40.00
21502;DHT22;27639;48.674;9.242;2023-04-21T14:16:37;23.70;39.90
21502;DHT22;27639;48.674;9.242;2023-04-21T14:19:03;23.60;40.20
21502;DHT22;27639;48.674;9.242;2023-04-21T14:21:28;23.70;40.20
21502;DHT22;27639;48.674;9.242;2023-04-21T14:23:55;23.70;39.80
21502;DHT22;27639;48.674;9.242;2023-04-21T14:26:20;23.50;40.40
21502;DHT22;27639;48.674;9.242;2023-04-21T14:28:46;23.50;40.50
21502;DHT22;27639;48.674;9.242;2023-04-21T14:31:12;23.50;40.70
21502;DHT22;27639;48.674;9.242;2023-04-21T14:33:37;23.50;40.50
21502;DHT22;27639;48.674;9.242;2023-04-21T14:36:03;23.60;40.70
21502;DHT22;27639;48.674;9.242;2023-04-21T14:38:28;23.50;41.00
21502;DHT22;27639;48.674;9.242;2023-04-21T14:40:55;23.60;41.00
21502;DHT22;27639;48.674;9.242;2023-04-21T14:43:21;23.60;41.40
21502;DHT22;27639;48.674;9.242;2023-04-21T14:45:47;23.60;41.30
21502;DHT22;27639;48.674;9.242;2023-04-21T14:48:12;23.60;41.60
21502;DHT22;27639;48.674;9.242;2023-04-21T14:50:41;23.70;41.90
21502;DHT22;27639;48.674;9.242;2023-04-21T14:53:07;23.60;41.50
21502;DHT22;27639;48.674;9.242;2023-04-21T14:55:33;23.60;41.60
21502;DHT22;27639;48.674;9.242;2023-04-21T14:57:58;23.50;41.40
21502;DHT22;27639;48.674;9.242;2023-04-21T15:00:24;23.50;41.60
21502;DHT22;27639;48.674;9.242;2023-04-21T15:02:50;23.40;42.00
21502;DHT22;27639;48.674;9.242;2023-04-21T15:05:16;23.30;41.80
21502;DHT22;27639;48.674;9.242;2023-04-21T15:07:43;23.30;41.90
21502;DHT22;27639;48.674;9.242;2023-04-21T15:10:09;23.30;42.10
21502;DHT22;27639;48.674;9.242;2023-04-21T15:12:35;23.30;42.30
21502;DHT22;27639;48.674;9.242;2023-04-21T15:15:01;23.30;42.60
21502;DHT22;27639;48.674;9.242;2023-04-21T15:17:26;23.40;42.50
21502;DHT22;27639;48.674;9.242;2023-04-21T15:19:52;23.40;42.50
21502;DHT22;27639;48.674;9.242;2023-04-21T15:22:18;23.40;42.20
21502;DHT22;27639;48.674;9.242;2023-04-21T15:24:44;23.50;42.10
21502;DHT22;27639;48.674;9.242;2023-04-21T15:27:10;23.50;42.00
21502;DHT22;27639;48.674;9.242;2023-04-21T15:29:36;23.50;41.60
21502;DHT22;27639;48.674;9.242;2023-04-21T15:32:01;23.30;42.20
21502;DHT22;27639;48.674;9.242;2023-04-21T15:34:27;23.30;42.20
21502;DHT22;27639;48.674;9.242;2023-04-21T15:36:52;23.20;42.40
21502;DHT22;27639;48.674;9.242;2023-04-21T15:39:18;23.20;42.60
21502;DHT22;27639;48.674;9.242;2023-04-21T15:41:44;23.10;42.60
21502;DHT22;27639;48.674;9.242;2023-04-21T15:44:10;23.00;42.90
21502;DHT22;27639;48.674;9.242;2023-04-21T15:46:35;22.90;43.30